Time;durP1;ratioP1;P1;durP2;ratioP2;P2;SDS_P1;SDS_P2;PMS_P1;PMS_P2;Temp;Humidity;BMP_temperature;BMP_pressure;BME280_temperature;BME280_humidity;BME280_pressure;Samples;Min_cycle;Max_cycle;Signal;HPM_P1;HPM_P2
2021/04/05 00:02:19;;;;;;;46.58;18.02;;;;;;;0.89;59.10;98475.29;2189124;79;21295;-72
2021/04/05 00:05:22;;;;;;;40.50;16.65;;;;;;;0.89;58.99;98468.41;2205427;78;21720;-73
2021/04/05 00:08:24;;;;;;;43.10;17.17;;;;;;;0.89;58.65;98461.09;2210678;79;21611;-74
2021/04/05 00:11:26;;;;;;;47.33;16.48;;;;;;;0.88;58.84;98457.67;2200868;79;21278;-73
2021/04/05 00:14:30;;;;;;;42.67;16.70;;;;;;;0.90;58.98;98455.88;2200618;79;21740;-74
2021/04/05 00:17:32;;;;;;;46.90;16.57;;;;;;;0.91;59.63;98452.41;2205965;80;21712;-74
2021/04/05 00:20:34;;;;;;;43.83;16.52;;;;;;;0.94;59.08;98446.32;2192829;78;21301;-73
2021/04/05 00:23:36;;;;;;;44.85;16.32;;;;;;;0.92;59.36;98446.79;2215979;78;21296;-74
2021/04/05 00:26:39;;;;;;;41.60;16.20;;;;;;;0.90;59.39;98448.13;2206015;78;21315;-75
2021/04/05 00:29:44;;;;;;;45.17;16.65;;;;;;;0.91;59.03;98447.70;2210022;80;21771;-75
2021/04/05 00:32:47;;;;;;;47.03;17.40;;;;;;;0.91;59.07;98440.79;2204793;80;21823;-74
2021/04/05 00:35:49;;;;;;;44.15;17.75;;;;;;;0.95;58.90;98435.08;2219648;80;21620;-74
2021/04/05 00:38:51;;;;;;;40.90;16.37;;;;;;;0.96;58.88;98429.91;2204112;80;21719;-74
2021/04/05 00:41:57;;;;;;;44.15;16.73;;;;;;;0.94;59.13;98424.38;2189911;79;21304;-72
2021/04/05 00:44:59;;;;;;;44.58;16.45;;;;;;;0.85;59.11;98417.73;2210948;78;21584;-72
2021/04/05 00:48:01;;;;;;;43.70;16.52;;;;;;;0.85;59.36;98413.41;2196017;80;21130;-73
2021/04/05 00:51:03;;;;;;;47.58;17.95;;;;;;;0.85;59.45;98406.95;2234522;80;21316;-74
2021/04/05 00:54:05;;;;;;;49.77;17.62;;;;;;;0.87;59.50;98396.57;2219622;80;21166;-75
2021/04/05 00:57:07;;;;;;;45.45;18.65;;;;;;;0.86;59.50;98393.58;2227580;80;21150;-73
2021/04/05 01:00:09;;;;;;;48.73;16.65;;;;;;;0.87;59.46;98386.24;2198544;79;21188;-75
2021/04/05 01:03:11;;;;;;;45.80;18.17;;;;;;;0.86;59.65;98375.50;2194336;80;21735;-75
2021/04/05 01:06:13;;;;;;;47.45;17.25;;;;;;;0.82;59.67;98369.59;2205164;78;21701;-73
2021/04/05 01:09:16;;;;;;;45.10;16.97;;;;;;;0.82;59.93;98357.11;2210486;79;21273;-74
2021/04/05 01:12:18;;;;;;;48.45;17.98;;;;;;;0.82;60.11;98357.98;2204019;80;21340;-73
2021/04/05 01:15:24;;;;;;;50.92;18.75;;;;;;;0.81;60.19;98350.28;2198130;80;21620;-74
2021/04/05 01:18:28;;;;;;;52.03;18.40;;;;;;;0.81;60.11;98340.78;2213342;80;21728;-73
2021/04/05 01:21:30;;;;;;;47.75;17.48;;;;;;;0.79;60.34;98334.83;2201145;78;21363;-73
2021/04/05 01:24:32;;;;;;;44.20;17.77;;;;;;;0.78;60.64;98335.72;2225176;79;21290;-73
2021/04/05 01:27:40;;;;;;;45.15;17.35;;;;;;;0.75;60.82;98322.03;2208652;79;21288;-73
2021/04/05 01:30:42;;;;;;;48.40;17.65;;;;;;;0.73;60.84;98323.83;2196084;80;21299;-72
2021/04/05 01:33:46;;;;;;;42.98;16.82;;;;;;;0.68;61.07;98322.22;2176243;80;21164;-74
2021/04/05 01:36:49;;;;;;;43.15;17.20;;;;;;;0.68;61.17;98317.06;2200437;80;21297;-73
2021/04/05 01:39:51;;;;;;;43.13;15.48;;;;;;;0.69;61.01;98308.89;2220114;80;21166;-72
2021/04/05 01:42:53;;;;;;;44.35;16.67;;;;;;;0.69;61.35;98311.47;2215731;79;21775;-74
2021/04/05 01:45:55;;;;;;;45.20;16.80;;;;;;;0.69;61.56;98307.59;2204004;79;21311;-74
2021/04/05 01:48:57;;;;;;;44.20;16.17;;;;;;;0.72;61.51;98295.02;2198191;80;21648;-74
2021/04/05 01:52:02;;;;;;;53.10;18.67;;;;;;;0.73;61.43;98291.10;2205352;79;21368;-73
2021/04/05 01:55:05;;;;;;;43.60;17.87;;;;;;;0.69;61.22;98282.62;2189523;80;21279;-73
2021/04/05 01:58:07;;;;;;;;;;;;;;;0.71;61.70;98279.98;2206858;79;21299;-72
2021/04/05 02:01:10;;;;;;;41.42;16.57;;;;;;;0.69;61.68;98281.78;2214202;79;20266;-74
2021/04/05 02:04:14;;;;;;;46.85;16.17;;;;;;;0.69;61.56;98277.91;2234028;78;21308;-74
2021/04/05 02:07:17;;;;;;;42.45;15.93;;;;;;;0.68;61.97;98269.30;2218150;80;21173;-74
2021/04/05 02:10:22;;;;;;;40.10;15.88;;;;;;;0.67;61.90;98270.19;2211244;80;21284;-73
2021/04/05 02:13:24;;;;;;;42.98;16.10;;;;;;;0.67;61.92;98270.64;2207181;80;21268;-74
2021/04/05 02:16:26;;;;;;;40.50;16.40;;;;;;;0.63;62.07;98266.03;2204168;80;21358;-73
2021/04/05 02:19:28;;;;;;;43.23;17.30;;;;;;;0.62;61.98;98265.63;2182560;80;21133;-73
2021/04/05 02:22:30;;;;;;;47.75;17.00;;;;;;;0.64;61.93;98262.53;2201098;80;21306;-73
2021/04/05 02:25:33;;;;;;;45.55;17.65;;;;;;;0.65;62.43;98253.08;2192246;80;21166;-75
2021/04/05 02:28:35;;;;;;;44.48;16.75;;;;;;;0.64;62.00;98250.92;2206328;79;21192;-73
2021/04/05 02:31:37;;;;;;;39.63;16.10;;;;;;;0.63;62.27;98247.09;2206319;80;21292;-74
2021/04/05 02:34:39;;;;;;;38.38;14.75;;;;;;;0.65;62.03;98235.84;2200999;78;21180;-73
2021/04/05 02:37:41;;;;;;;44.13;15.28;;;;;;;0.67;62.17;98224.17;2208820;80;21319;-73
2021/04/05 02:40:48;;;;;;;41.68;15.18;;;;;;;0.66;62.02;98229.80;2219169;78;21164;-74
2021/04/05 02:43:54;;;;;;;41.77;15.20;;;;;;;0.66;62.26;98225.06;2195262;80;21295;-73
2021/04/05 02:46:56;;;;;;;40.20;15.20;;;;;;;0.69;62.25;98215.95;2194968;80;21153;-73
2021/04/05 02:50:02;;;;;;;;;;;;;;;0.72;62.13;98213.28;2184226;80;21265;-74
2021/04/05 02:53:05;;;;;;;38.02;14.83;;;;;;;0.69;62.05;98198.72;2203768;80;20153;-72
2021/04/05 02:56:09;;;;;;;40.28;14.70;;;;;;;0.67;62.12;98196.62;2210415;79;21594;-73
2021/04/05 02:59:13;;;;;;;37.63;13.95;;;;;;;0.69;61.95;98184.98;2209598;79;21311;-72
2021/04/05 03:02:15;;;;;;;38.42;15.03;;;;;;;0.73;62.20;98185.25;2195625;80;21166;-73
2021/04/05 03:05:17;;;;;;;36.08;14.20;;;;;;;0.74;62.23;98176.62;2174658;80;21287;-73
2021/04/05 03:08:21;;;;;;;39.25;14.33;;;;;;;0.76;62.03;98174.86;2205598;80;21316;-73
2021/04/05 03:11:28;;;;;;;37.65;15.00;;;;;;;0.74;62.09;98165.47;2181480;80;21121;-75
2021/04/05 03:14:30;;;;;;;39.48;12.82;;;;;;;0.76;62.13;98166.25;2187052;80;21599;-75
2021/04/05 03:17:33;;;;;;;37.13;14.30;;;;;;;0.73;62.08;98155.56;2214547;79;21273;-74
2021/04/05 03:20:35;;;;;;;41.35;14.40;;;;;;;0.75;62.30;98152.52;2222431;80;21637;-74
2021/04/05 03:23:37;;;;;;;41.73;14.63;;;;;;;0.76;62.08;98146.89;2223929;78;21367;-72
2021/04/05 03:26:39;;;;;;;36.83;14.98;;;;;;;0.82;62.04;98132.48;2175298;78;21303;-73
2021/04/05 03:29:41;;;;;;;37.13;13.95;;;;;;;0.82;61.94;98128.61;2199314;80;21299;-74
2021/04/05 03:32:43;;;;;;;36.45;14.30;;;;;;;0.81;62.53;98127.78;2213801;80;21290;-73
2021/04/05 03:35:45;;;;;;;37.45;12.90;;;;;;;0.82;62.13;98120.86;2206667;79;21305;-73
2021/04/05 03:38:47;;;;;;;37.00;12.53;;;;;;;0.80;62.57;98117.04;2207017;80;21724;-74
2021/04/05 03:41:49;;;;;;;41.90;14.03;;;;;;;0.81;62.20;98117.91;2232387;80;21288;-73
2021/04/05 03:44:51;;;;;;;35.35;12.65;;;;;;;0.79;62.18;98101.60;2194907;80;21320;-73
2021/04/05 03:47:53;;;;;;;39.78;13.28;;;;;;;0.80;62.31;98093.80;2194980;80;21287;-74
2021/04/05 03:50:55;;;;;;;34.05;12.93;;;;;;;0.79;62.22;98084.83;2210059;79;21299;-73
2021/04/05 03:53:57;;;;;;;33.83;13.32;;;;;;;0.76;62.27;98077.19;2200629;80;21784;-73
2021/04/05 03:56:59;;;;;;;38.67;13.90;;;;;;;0.75;62.33;98069.03;2197708;80;21674;-73
2021/04/05 04:00:01;;;;;;;37.70;12.90;;;;;;;0.74;62.44;98056.59;2207039;79;21724;-74
2021/04/05 04:03:04;;;;;;;41.13;13.58;;;;;;;0.74;62.63;98054.46;2194346;79;21307;-73
2021/04/05 04:06:07;;;;;;;36.65;13.05;;;;;;;0.73;62.38;98054.06;2209301;78;21728;-74
2021/04/05 04:09:09;;;;;;;34.45;12.88;;;;;;;0.71;62.55;98044.24;2213840;80;21756;-73
2021/04/05 04:12:11;;;;;;;34.13;12.55;;;;;;;0.71;62.51;98031.34;2190707;80;21364;-73
2021/04/05 04:15:14;;;;;;;35.20;12.80;;;;;;;0.73;62.54;98031.66;2212069;79;21302;-72
2021/04/05 04:18:16;;;;;;;34.70;12.93;;;;;;;0.75;62.52;98012.23;2216218;80;21142;-72
2021/04/05 04:21:18;;;;;;;33.10;11.97;;;;;;;0.79;62.48;98007.38;2220066;80;21289;-72
2021/04/05 04:24:20;;;;;;;39.20;13.98;;;;;;;0.81;62.47;98010.77;2223837;78;21308;-74
2021/04/05 04:27:22;;;;;;;37.10;12.45;;;;;;;0.85;62.41;97998.14;2209579;80;21696;-73
2021/04/05 04:30:33;;;;;;;35.33;13.22;;;;;;;0.90;62.51;97991.52;2208251;79;21395;-74
2021/04/05 04:33:35;;;;;;;37.00;13.78;;;;;;;0.95;62.29;97974.11;2193110;80;21732;-74
2021/04/05 04:36:37;;;;;;;38.73;13.18;;;;;;;1.03;62.14;97975.97;2214655;78;21313;-74
2021/04/05 04:39:39;;;;;;;34.53;12.85;;;;;;;1.13;62.19;97963.58;2188882;80;21165;-73
2021/04/05 04:42:41;;;;;;;34.05;12.58;;;;;;;1.21;62.05;97959.81;2205090;80;21292;-73
2021/04/05 04:45:43;;;;;;;31.45;10.68;;;;;;;1.31;61.85;97947.40;2208697;79;21293;-73
2021/04/05 04:48:45;;;;;;;33.53;11.50;;;;;;;1.43;61.72;97947.38;2223030;79;21287;-73
2021/04/05 04:51:47;;;;;;;34.98;11.70;;;;;;;1.53;61.40;97948.70;2205934;80;21193;-73
2021/04/05 04:54:49;;;;;;;30.57;11.00;;;;;;;1.65;61.39;97948.70;2211079;80;21319;-72
2021/04/05 04:57:51;;;;;;;28.95;10.95;;;;;;;1.78;60.95;97938.73;2210455;78;21300;-73
2021/04/05 05:00:53;;;;;;;27.73;9.68;;;;;;;1.93;60.65;97941.14;2219971;80;21768;-72
2021/04/05 05:03:55;;;;;;;30.68;10.95;;;;;;;2.08;60.48;97926.30;2206134;80;21323;-72
2021/04/05 05:06:57;;;;;;;28.05;10.35;;;;;;;2.25;60.02;97932.52;2198290;80;21739;-72
2021/04/05 05:09:59;;;;;;;32.53;12.03;;;;;;;2.38;59.55;97920.73;2209659;79;21340;-73
2021/04/05 05:13:01;;;;;;;28.95;10.70;;;;;;;2.55;59.78;97923.08;2204019;80;21287;-72
2021/04/05 05:16:03;;;;;;;30.50;10.75;;;;;;;2.71;59.15;97902.07;2202908;78;21287;-72
2021/04/05 05:19:05;;;;;;;29.25;9.58;;;;;;;2.85;58.33;97892.41;2209285;78;21287;-72
2021/04/05 05:22:07;;;;;;;29.37;9.68;;;;;;;2.98;57.90;97883.63;2210488;80;21300;-73
2021/04/05 05:25:09;;;;;;;28.62;10.75;;;;;;;3.13;57.86;97876.91;2210331;79;21293;-72
2021/04/05 05:28:11;;;;;;;29.90;10.40;;;;;;;3.27;57.59;97869.33;2195557;79;21713;-72
2021/04/05 05:31:14;;;;;;;30.97;11.88;;;;;;;3.43;57.23;97861.70;2225209;78;21164;-72
2021/04/05 05:34:16;;;;;;;32.38;13.78;;;;;;;3.60;56.81;97863.93;2202589;80;21287;-72
2021/04/05 05:37:21;;;;;;;28.85;9.65;;;;;;;3.74;56.41;97845.95;2209309;79;21300;-72
2021/04/05 05:40:23;;;;;;;29.37;12.50;;;;;;;3.90;56.49;97841.31;2209773;80;21293;-71
2021/04/05 05:43:25;;;;;;;30.60;13.20;;;;;;;4.06;56.10;97832.30;2196625;80;21771;-72
2021/04/05 05:46:27;;;;;;;27.67;9.23;;;;;;;4.21;54.98;97830.67;2179534;80;21802;-72
2021/04/05 05:49:29;;;;;;;32.35;12.40;;;;;;;4.32;54.75;97842.20;2211389;80;21158;-72
2021/04/05 05:52:31;;;;;;;35.90;14.28;;;;;;;4.49;54.37;97833.52;2193011;80;21297;-72
2021/04/05 05:55:33;;;;;;;40.30;15.13;;;;;;;4.66;54.73;97838.31;2198562;80;21169;-72
2021/04/05 05:58:35;;;;;;;29.77;10.63;;;;;;;4.83;54.10;97814.86;2211622;79;21307;-72
2021/04/05 06:01:37;;;;;;;35.78;13.32;;;;;;;4.97;53.39;97823.66;2218104;80;21305;-72
2021/04/05 06:04:39;;;;;;;37.05;11.85;;;;;;;5.10;53.62;97827.30;2200518;79;21718;-71
2021/04/05 06:07:41;;;;;;;28.12;9.85;;;;;;;5.25;52.91;97810.00;2204219;80;21276;-71
2021/04/05 06:10:43;;;;;;;28.92;11.15;;;;;;;5.40;53.54;97821.30;2214892;78;21725;-72
2021/04/05 06:13:45;;;;;;;32.65;11.28;;;;;;;5.61;52.89;97819.73;2200179;80;21186;-71
2021/04/05 06:16:47;;;;;;;30.75;10.90;;;;;;;5.71;52.33;97807.88;2199800;78;21300;-72
2021/04/05 06:19:50;;;;;;;26.68;9.40;;;;;;;5.87;51.40;97803.92;2199484;79;21315;-72
2021/04/05 06:22:52;;;;;;;;;;;;;;;5.92;50.78;97789.33;2199819;78;21297;-71
2021/04/05 06:25:54;;;;;;;25.25;9.03;;;;;;;6.01;50.91;97798.78;2201329;80;20244;-72
2021/04/05 06:28:56;;;;;;;24.87;8.00;;;;;;;6.19;50.38;97791.66;2205616;80;21325;-71
2021/04/05 06:31:58;;;;;;;30.65;10.15;;;;;;;6.34;50.16;97778.64;2177827;80;21750;-71
2021/04/05 06:35:00;;;;;;;26.70;7.90;;;;;;;6.44;49.87;97769.34;2187894;80;21586;-72
2021/04/05 06:38:02;;;;;;;27.73;8.70;;;;;;;6.46;48.88;97747.09;2196138;80;21288;-71
2021/04/05 06:41:04;;;;;;;25.45;8.20;;;;;;;6.59;49.60;97758.42;2194938;80;21159;-71
2021/04/05 06:44:06;;;;;;;24.10;8.33;;;;;;;6.80;49.75;97747.14;2201633;78;21295;-72
2021/04/05 06:47:09;;;;;;;26.70;8.95;;;;;;;6.96;48.69;97743.58;2207163;80;21271;-72
2021/04/05 06:50:11;;;;;;;24.90;8.25;;;;;;;7.12;48.66;97731.22;2208065;80;21715;-71
2021/04/05 06:53:13;;;;;;;26.33;8.50;;;;;;;7.18;47.86;97737.34;2189797;80;21157;-71
2021/04/05 06:56:15;;;;;;;26.10;8.48;;;;;;;7.34;48.02;97735.91;2202612;80;21298;-72
2021/04/05 06:59:17;;;;;;;24.67;8.33;;;;;;;7.53;47.54;97718.56;2207145;79;21301;-71
2021/04/05 07:02:19;;;;;;;24.10;7.37;;;;;;;7.62;46.65;97716.63;2207074;80;21303;-71
2021/04/05 07:05:21;;;;;;;27.65;9.15;;;;;;;7.76;46.64;97712.28;2216254;80;21299;-71
2021/04/05 07:08:23;;;;;;;23.85;7.72;;;;;;;7.92;47.31;97723.83;2212771;80;21303;-72
2021/04/05 07:11:25;;;;;;;23.02;7.22;;;;;;;8.05;45.86;97701.64;2208958;80;21170;-71
2021/04/05 07:14:28;;;;;;;24.65;8.13;;;;;;;8.12;45.88;97708.11;2205447;80;21293;-71
2021/04/05 07:17:30;;;;;;;;;;;;;;;8.22;46.76;97710.45;2191415;80;21154;-71
2021/04/05 07:20:34;;;;;;;26.85;8.65;;;;;;;8.30;46.52;97688.55;2200769;80;20226;-71
2021/04/05 07:23:36;;;;;;;27.67;9.93;;;;;;;8.42;45.36;97694.69;2209269;80;21160;-71
2021/04/05 07:26:38;;;;;;;28.47;9.63;;;;;;;8.65;46.44;97696.19;2206067;80;21163;-71
2021/04/05 07:29:41;;;;;;;30.82;10.08;;;;;;;8.89;46.40;97684.91;2202422;79;21293;-71
2021/04/05 07:32:43;;;;;;;23.42;7.45;;;;;;;9.10;44.08;97689.06;2207083;80;21271;-71
2021/04/05 07:35:45;;;;;;;25.35;8.93;;;;;;;9.21;45.18;97682.57;2229441;79;21311;-71
2021/04/05 07:38:47;;;;;;;27.17;8.80;;;;;;;9.34;44.91;97674.16;2225301;80;21174;-71
2021/04/05 07:41:49;;;;;;;23.00;7.05;;;;;;;9.44;44.47;97664.30;2196033;80;21168;-71
2021/04/05 07:44:51;;;;;;;27.07;7.65;;;;;;;9.52;43.22;97637.09;2217231;78;21292;-72
2021/04/05 07:47:53;;;;;;;24.63;8.23;;;;;;;9.53;43.96;97651.36;2192653;80;21323;-71
2021/04/05 07:50:55;;;;;;;25.12;7.40;;;;;;;9.68;44.28;97658.55;2204903;80;21625;-71
2021/04/05 07:53:57;;;;;;;26.95;8.28;;;;;;;9.82;43.08;97653.55;2196720;80;21334;-72
2021/04/05 07:56:59;;;;;;;23.15;7.85;;;;;;;10.17;43.76;97629.50;2214877;78;21304;-72
2021/04/05 08:00:01;;;;;;;24.63;8.43;;;;;;;10.17;43.76;97629.50;2194220;80;21303;-71
2021/04/05 08:03:03;;;;;;;26.20;8.25;;;;;;;10.27;42.83;97631.78;2180192;80;21277;-71
2021/04/05 08:06:05;;;;;;;26.87;9.40;;;;;;;10.32;41.97;97614.38;2189338;80;21296;-71
2021/04/05 08:09:07;;;;;;;26.73;8.15;;;;;;;10.22;42.69;97609.85;2195397;80;21153;-71
2021/04/05 08:12:09;;;;;;;23.98;7.20;;;;;;;10.45;42.29;97595.92;2204492;78;21162;-71
2021/04/05 08:15:11;;;;;;;29.80;10.60;;;;;;;10.53;42.00;97600.91;2181462;80;21180;-71
2021/04/05 08:18:13;;;;;;;26.62;8.98;;;;;;;10.56;43.05;97591.47;2207977;80;21154;-72
2021/04/05 08:21:16;;;;;;;25.65;8.18;;;;;;;10.41;42.12;97590.08;2211982;80;21378;-71
2021/04/05 08:24:18;;;;;;;24.23;8.33;;;;;;;10.53;43.04;97562.89;2204522;80;21301;-70
2021/04/05 08:27:20;;;;;;;23.57;8.38;;;;;;;10.65;42.39;97567.61;2210566;79;21293;-71
2021/04/05 08:30:22;;;;;;;;;;;;;;;10.82;42.09;97549.64;2204987;78;21716;-71
2021/04/05 08:33:26;;;;;;;28.30;7.45;;;;;;;10.89;41.89;97545.09;2217409;80;20255;-72
2021/04/05 08:36:28;;;;;;;32.10;10.00;;;;;;;11.07;41.54;97530.91;2176147;80;21275;-72
2021/04/05 08:39:30;;;;;;;26.42;7.62;;;;;;;11.32;40.79;97527.56;2208875;79;21749;-71
2021/04/05 08:42:32;;;;;;;27.77;8.88;;;;;;;11.47;40.41;97516.72;2209194;79;21187;-71
2021/04/05 08:45:35;;;;;;;26.73;7.55;;;;;;;11.67;40.52;97518.45;2216291;79;21162;-72
2021/04/05 08:48:37;;;;;;;23.75;8.00;;;;;;;11.82;40.18;97502.33;2180405;80;21253;-71
2021/04/05 08:51:39;;;;;;;24.32;7.30;;;;;;;11.90;41.05;97503.80;2194148;80;21297;-72
2021/04/05 08:54:41;;;;;;;25.85;8.58;;;;;;;11.94;40.00;97486.84;2196235;80;21293;-71
2021/04/05 08:57:43;;;;;;;24.87;7.90;;;;;;;11.91;39.89;97480.48;2197392;79;21328;-72
2021/04/05 09:00:45;;;;;;;25.90;7.03;;;;;;;12.08;40.03;97506.63;2208209;79;21626;-72
2021/04/05 09:03:47;;;;;;;25.17;8.38;;;;;;;11.99;40.50;97465.41;2213603;80;21768;-71
2021/04/05 09:06:49;;;;;;;28.47;9.58;;;;;;;11.99;40.01;97458.84;2209855;80;21725;-72
2021/04/05 09:09:51;;;;;;;24.40;7.33;;;;;;;12.11;40.40;97463.84;2197839;78;21181;-71
2021/04/05 09:12:53;;;;;;;25.82;8.48;;;;;;;12.60;38.92;97453.83;2189784;80;21161;-72
2021/04/05 09:15:55;;;;;;;27.30;8.18;;;;;;;12.97;39.63;97443.38;2189438;80;21174;-71
2021/04/05 09:18:57;;;;;;;23.22;7.45;;;;;;;13.30;37.92;97431.98;2198447;80;21351;-72
2021/04/05 09:21:59;;;;;;;28.65;9.73;;;;;;;13.58;37.89;97420.16;2196083;79;21305;-71
2021/04/05 09:25:01;;;;;;;26.95;8.48;;;;;;;13.80;36.91;97407.55;2171788;80;21143;-71
2021/04/05 09:28:04;;;;;;;22.75;7.70;;;;;;;14.13;37.56;97405.23;2193307;79;21135;-71
2021/04/05 09:31:07;;;;;;;21.82;7.80;;;;;;;14.28;36.36;97362.01;2188876;80;21293;-71
2021/04/05 09:34:09;;;;;;;29.70;9.00;;;;;;;14.31;36.59;97377.52;2210166;79;21300;-71
2021/04/05 09:37:11;;;;;;;25.70;8.55;;;;;;;14.43;36.37;97379.45;2181089;80;21292;-71
2021/04/05 09:40:13;;;;;;;24.98;7.25;;;;;;;14.55;35.50;97360.59;2196539;80;21294;-71
2021/04/05 09:43:15;;;;;;;24.43;7.08;;;;;;;14.50;35.79;97355.44;2169754;81;21324;-71
2021/04/05 09:46:17;;;;;;;21.48;5.72;;;;;;;14.71;35.01;97353.30;2171714;81;21280;-71
2021/04/05 09:49:20;;;;;;;29.18;9.68;;;;;;;14.81;33.72;97336.51;2142313;82;21296;-71
2021/04/05 09:52:22;;;;;;;26.23;8.28;;;;;;;14.73;34.87;97348.67;2153809;81;21300;-71
2021/04/05 09:55:25;;;;;;;24.02;7.50;;;;;;;14.83;34.80;97344.61;2145491;81;21733;-71
2021/04/05 09:58:27;;;;;;;25.25;7.85;;;;;;;14.95;34.89;97336.42;2134066;82;21261;-71
2021/04/05 10:01:29;;;;;;;24.95;6.87;;;;;;;14.82;33.98;97331.58;2113768;82;21271;-71
2021/04/05 10:04:31;;;;;;;23.80;6.92;;;;;;;14.84;34.13;97322.52;2161746;81;21161;-72
2021/04/05 10:07:33;;;;;;;21.05;5.97;;;;;;;15.02;34.03;97330.34;2140582;81;21785;-71
2021/04/05 10:10:35;;;;;;;22.77;6.78;;;;;;;15.13;32.79;97304.64;2145117;82;21731;-71
2021/04/05 10:13:37;;;;;;;22.13;5.95;;;;;;;15.23;33.52;97319.38;2153822;82;21752;-71
2021/04/05 10:16:39;;;;;;;20.77;6.35;;;;;;;15.36;33.72;97310.19;2151872;81;21145;-71
2021/04/05 10:19:41;;;;;;;23.30;6.53;;;;;;;15.36;33.32;97311.51;2137395;81;21317;-71
2021/04/05 10:22:44;;;;;;;25.82;7.37;;;;;;;15.39;32.95;97290.86;2120332;81;21138;-71
2021/04/05 10:25:46;;;;;;;28.15;7.87;;;;;;;15.32;33.19;97300.42;2170293;81;21321;-71
2021/04/05 10:28:48;;;;;;;21.90;5.97;;;;;;;15.38;33.12;97297.13;2146047;81;21301;-72
2021/04/05 10:31:51;;;;;;;;;;;;;;;15.20;33.18;97289.34;2163119;81;21296;-71
2021/04/05 10:34:53;;;;;;;20.75;6.20;;;;;;;15.05;33.20;97279.86;2150454;81;20425;-71
2021/04/05 10:37:55;;;;;;;22.00;6.03;;;;;;;14.86;33.07;97286.73;2122296;82;21280;-71
2021/04/05 10:40:57;;;;;;;23.02;5.60;;;;;;;14.82;33.10;97265.09;2145914;81;21320;-71
2021/04/05 10:43:59;;;;;;;20.57;5.53;;;;;;;14.50;33.39;97253.87;2142055;82;21184;-72
2021/04/05 10:47:02;;;;;;;21.65;5.80;;;;;;;14.61;32.98;97261.98;2137976;82;21234;-72
2021/04/05 10:50:04;;;;;;;;;;;;;;;14.55;32.29;97230.47;2144257;81;22128;-72
2021/04/05 10:53:06;;;;;;;22.17;4.87;;;;;;;14.18;32.60;97238.20;2134346;82;20130;-71
2021/04/05 10:56:08;;;;;;;21.52;5.75;;;;;;;14.00;33.59;97258.81;2126919;82;21173;-71
2021/04/05 10:59:10;;;;;;;18.15;4.80;;;;;;;13.99;33.79;97255.86;2141391;82;21308;-71
2021/04/05 11:02:15;;;;;;;22.07;5.60;;;;;;;13.82;33.29;97248.31;2135884;82;21287;-71
2021/04/05 11:05:17;;;;;;;25.48;6.55;;;;;;;13.61;33.44;97256.53;2151809;82;21296;-71
2021/04/05 11:08:19;;;;;;;24.32;5.65;;;;;;;13.79;33.96;97231.49;2152168;82;21166;-71
2021/04/05 11:11:21;;;;;;;21.37;6.37;;;;;;;13.91;33.41;97232.57;2128445;82;21170;-72
2021/04/05 11:14:23;;;;;;;22.27;5.80;;;;;;;13.95;34.72;97236.53;2141460;81;21367;-71
2021/04/05 11:17:25;;;;;;;21.27;6.00;;;;;;;13.89;32.69;97233.20;2144449;82;21430;-71
2021/04/05 11:20:27;;;;;;;;;;;;;;;13.70;34.03;97224.48;2154049;82;21280;-71
2021/04/05 11:23:29;;;;;;;21.07;5.45;;;;;;;13.99;33.70;97216.32;2155157;81;20256;-71
2021/04/05 11:26:35;;;;;;;19.25;5.53;;;;;;;14.20;33.37;97187.44;2155267;81;21736;-72
2021/04/05 11:29:35;;;;;;;21.70;6.30;;;;;;;14.22;32.40;97201.28;2158800;80;21289;-71
2021/04/05 11:32:37;;;;;;;27.52;7.22;;;;;;;14.27;33.83;97209.56;2171599;80;21295;-72
2021/04/05 11:35:40;;;;;;;23.57;6.17;;;;;;;14.20;33.92;97203.26;2122405;83;21305;-72
2021/04/05 11:38:52;;;;;;;24.32;5.50;;;;;;;14.01;32.77;97191.13;2120096;83;21291;-72
2021/04/05 11:41:53;;;;;;;22.95;5.97;;;;;;;13.75;32.06;97158.16;2135748;82;21764;-72
2021/04/05 11:44:59;;;;;;;26.30;6.35;;;;;;;13.62;33.92;97196.75;2120431;82;21319;-72
2021/04/05 11:48:01;;;;;;;23.27;6.47;;;;;;;13.49;33.20;97180.87;2129970;82;21383;-71
2021/04/05 11:51:03;;;;;;;25.62;7.70;;;;;;;13.63;34.53;97176.87;2122154;83;21295;-73
2021/04/05 11:54:05;;;;;;;;;;;;;;;13.95;34.28;97187.30;2136498;83;21625;-72
2021/04/05 11:57:07;;;;;;;22.70;6.57;;;;;;;14.25;33.57;97156.16;2130829;83;20570;-72
2021/04/05 12:00:10;;;;;;;20.52;6.00;;;;;;;14.40;33.48;97174.84;2114629;83;21721;-71
2021/04/05 12:03:12;;;;;;;;;;;;;;;14.43;32.96;97142.06;2111077;83;21281;-72
2021/04/05 12:06:14;;;;;;;21.05;5.95;;;;;;;14.43;33.58;97164.48;2116641;82;20227;-72
2021/04/05 12:09:17;;;;;;;20.92;6.12;;;;;;;14.33;32.69;97131.12;2126962;82;21321;-72
2021/04/05 12:12:19;;;;;;;19.57;5.62;;;;;;;14.30;33.39;97159.64;2117792;83;22108;-72
2021/04/05 12:15:22;;;;;;;18.98;5.83;;;;;;;14.07;33.55;97157.54;2119236;82;21728;-72
2021/04/05 12:18:24;;;;;;;26.10;7.22;;;;;;;14.03;33.40;97128.52;2121256;83;21727;-71
2021/04/05 12:21:26;;;;;;;21.75;6.50;;;;;;;14.29;34.12;97148.75;2127769;83;21304;-73
2021/04/05 12:24:28;;;;;;;25.00;6.92;;;;;;;14.45;32.44;97162.02;2119673;81;21320;-72
2021/04/05 12:27:31;;;;;;;;;;;;;;;14.72;33.66;97131.97;2128702;81;21303;-72
2021/04/05 12:30:33;;;;;;;22.65;6.10;;;;;;;14.73;32.26;97123.05;2162933;81;20229;-72
2021/04/05 12:33:35;;;;;;;21.80;6.67;;;;;;;14.64;32.23;97125.81;2161352;81;21299;-71
2021/04/05 12:36:37;;;;;;;22.65;6.70;;;;;;;14.59;33.34;97098.57;2142060;81;21300;-72
2021/04/05 12:39:39;;;;;;;20.15;6.45;;;;;;;14.47;33.10;97105.97;2151573;81;21294;-72
2021/04/05 12:42:41;;;;;;;23.67;6.85;;;;;;;14.37;32.48;97103.45;2151325;82;21618;-71
2021/04/05 12:45:43;;;;;;;26.45;8.58;;;;;;;14.38;33.04;97115.66;2128607;82;21600;-72
2021/04/05 12:48:46;;;;;;;23.92;6.78;;;;;;;14.41;33.12;97101.81;2166289;81;21147;-72
2021/04/05 12:51:48;;;;;;;23.52;7.40;;;;;;;14.32;33.70;97105.77;2132887;83;21198;-71
2021/04/05 12:54:51;;;;;;;24.37;6.60;;;;;;;14.43;33.53;97078.75;2096817;82;21598;-72
2021/04/05 12:57:52;;;;;;;25.80;8.18;;;;;;;14.19;32.46;97086.91;2131284;82;21741;-71
2021/04/05 13:00:54;;;;;;;27.07;7.80;;;;;;;13.84;33.89;97072.92;2135056;83;21730;-72
2021/04/05 13:03:57;;;;;;;23.10;6.70;;;;;;;13.86;35.13;97061.71;2129488;83;21764;-71
2021/04/05 13:06:59;;;;;;;24.75;7.05;;;;;;;13.78;34.36;97057.74;2133145;82;21288;-73
2021/04/05 13:10:00;;;;;;;25.43;7.75;;;;;;;13.83;35.02;97060.72;2127728;82;21320;-71
2021/04/05 13:13:02;;;;;;;24.20;7.60;;;;;;;13.93;34.56;97044.79;2170174;81;21323;-71
2021/04/05 13:16:05;;;;;;;24.07;6.92;;;;;;;14.13;35.33;97042.73;2157981;82;21323;-72
2021/04/05 13:19:07;;;;;;;22.87;5.80;;;;;;;14.22;34.50;97048.34;2158834;82;21724;-72
2021/04/05 13:22:10;;;;;;;;;;;;;;;13.96;33.42;97032.11;2160976;82;21423;-72
2021/04/05 13:25:12;;;;;;;26.10;8.85;;;;;;;13.64;34.50;97028.34;2145204;82;20307;-72
2021/04/05 13:28:14;;;;;;;24.25;7.67;;;;;;;13.39;34.16;97048.46;2150162;82;21312;-72
2021/04/05 13:31:16;;;;;;;27.30;8.33;;;;;;;13.28;35.45;97038.15;2144149;82;21278;-71
2021/04/05 13:34:18;;;;;;;25.08;8.23;;;;;;;13.20;35.72;97043.34;2171251;82;21296;-72
2021/04/05 13:37:20;;;;;;;26.93;7.58;;;;;;;13.10;35.46;97040.80;2155495;81;21275;-72
2021/04/05 13:40:23;;;;;;;25.45;8.08;;;;;;;13.06;35.30;97025.83;2142641;82;21739;-72
2021/04/05 13:43:25;;;;;;;;;;;;;;;13.08;36.27;97042.28;2167809;82;21161;-72
2021/04/05 13:46:27;;;;;;;20.80;6.23;;;;;;;13.03;35.88;97032.72;2161040;82;20217;-72
2021/04/05 13:49:29;;;;;;;22.40;6.53;;;;;;;12.92;36.48;97047.42;2155759;82;21755;-73
2021/04/05 13:52:31;;;;;;;25.27;6.90;;;;;;;12.82;35.34;97027.27;2155778;82;21306;-72
2021/04/05 13:55:33;;;;;;;25.17;7.15;;;;;;;12.76;35.40;97048.11;2146023;82;21735;-72
2021/04/05 13:58:35;;;;;;;24.00;6.50;;;;;;;12.75;36.01;97049.89;2146681;82;21767;-73
2021/04/05 14:01:37;;;;;;;25.57;7.03;;;;;;;12.70;36.12;97043.43;2171560;82;21304;-73
2021/04/05 14:04:39;;;;;;;24.67;7.85;;;;;;;12.68;35.91;97038.82;2170685;82;21319;-74
2021/04/05 14:07:41;;;;;;;22.60;5.75;;;;;;;12.66;35.87;97061.33;2168860;82;21299;-73
2021/04/05 14:10:43;;;;;;;22.35;6.65;;;;;;;12.69;35.63;97039.98;2161698;82;21324;-73
2021/04/05 14:13:45;;;;;;;22.50;7.37;;;;;;;12.70;36.00;97035.54;2167215;82;21295;-74